Russell, Mississippi
Current Conditions -  °F | °C
As of 10:58 AM on Thursday 18 Dec 2014 (Local Time) from KMEI Reporting Station
Overcast Overcast  
Wind Chill: 50°   Ceiling: 4000
Heat Index: 50°   Visibility: 10mi
Dew Point: 36°   Wind: 8mph
Humidity: 59%   Direction: 20°NNE
Pressure: 30.22"   Gusts: NA
Location:  32.3221°N, 88.5771°W
Report Text: KMEI 181658Z 02007KT 10SM BKN040 OVC110 10/02 A3022 RMK AO2 SLP233 T01000022
Loading
Personal Weather Stations






























Interactive Weather Map New forecast layout! Learn more

10-Day Weather Forecast

Advertisements
Track Severe Weather on mobile